Time;durP1;ratioP1;P1;durP2;ratioP2;P2;SDS_P1;SDS_P2;PMS_P1;PMS_P2;Temp;Humidity;BMP_temperature;BMP_pressure;BME280_temperature;BME280_humidity;BME280_pressure;Samples;Min_cycle;Max_cycle;Signal;HPM_P1;HPM_P2
2020/12/08 00:02:17;;;;;;;36.78;20.15;;;5.90;99.90;;;;;;5027751;28;20065;-39
2020/12/08 00:04:43;;;;;;;39.30;21.65;;;5.90;99.90;;;;;;5021390;28;20087;-44
2020/12/08 00:07:09;;;;;;;36.38;20.48;;;5.80;99.90;;;;;;5021388;28;20060;-43
2020/12/08 00:09:36;;;;;;;40.17;20.58;;;5.80;99.90;;;;;;5019641;28;20025;-41
2020/12/08 00:12:02;;;;;;;45.38;23.58;;;5.80;99.90;;;;;;5020973;28;20080;-43
2020/12/08 00:14:28;;;;;;;47.15;25.08;;;5.70;99.90;;;;;;5018432;28;20030;-44
2020/12/08 00:16:53;;;;;;;51.33;26.08;;;5.70;99.90;;;;;;5019844;28;20530;-42
2020/12/08 00:19:19;;;;;;;50.42;24.77;;;5.70;99.90;;;;;;5018616;28;20040;-41
2020/12/08 00:21:45;;;;;;;48.30;26.65;;;5.70;99.90;;;;;;5018422;28;21049;-41
2020/12/08 00:24:14;;;;;;;39.55;21.60;;;5.70;99.90;;;;;;5023165;28;20033;-44
2020/12/08 00:26:41;;;;;;;42.05;22.40;;;5.60;99.90;;;;;;5020172;28;20033;-43
2020/12/08 00:29:07;;;;;;;38.88;23.35;;;5.60;99.90;;;;;;5018836;28;20061;-41
2020/12/08 00:31:34;;;;;;;52.22;28.15;;;5.50;99.90;;;;;;5018459;28;20052;-42
2020/12/08 00:34:00;;;;;;;43.30;23.55;;;5.50;99.90;;;;;;5018706;28;20022;-40
2020/12/08 00:36:26;;;;;;;49.42;26.38;;;5.50;99.90;;;;;;5018476;28;20477;-42
2020/12/08 00:38:52;;;;;;;50.85;28.20;;;5.40;99.90;;;;;;5016224;28;20048;-42
2020/12/08 00:41:19;;;;;;;47.10;25.23;;;5.40;99.90;;;;;;5016070;28;20062;-42
2020/12/08 00:43:46;;;;;;;49.33;25.67;;;5.40;99.90;;;;;;5018835;28;20033;-42
2020/12/08 00:46:13;;;;;;;50.70;26.58;;;5.40;99.90;;;;;;5015205;28;20037;-43
2020/12/08 00:48:39;;;;;;;44.15;23.08;;;5.40;99.90;;;;;;5015127;28;20037;-39
2020/12/08 00:51:05;;;;;;;44.35;22.63;;;5.40;99.90;;;;;;5017434;28;20521;-43
2020/12/08 00:53:31;;;;;;;43.40;23.48;;;5.30;99.90;;;;;;5015752;28;20068;-43
2020/12/08 00:55:57;;;;;;;41.20;21.10;;;5.30;99.90;;;;;;5024081;28;20021;-40
2020/12/08 00:58:22;;;;;;;40.67;22.35;;;5.30;99.90;;;;;;5022928;28;20044;-42
2020/12/08 01:00:48;;;;;;;46.35;24.40;;;5.30;99.90;;;;;;5020075;28;20533;-43
2020/12/08 01:03:14;;;;;;;51.50;25.52;;;5.30;99.90;;;;;;5022633;28;20029;-44
2020/12/08 01:05:39;;;;;;;47.15;23.63;;;5.30;99.90;;;;;;5026240;28;20357;-42
2020/12/08 01:08:05;;;;;;;50.70;28.10;;;5.30;99.90;;;;;;5015476;28;20064;-42
2020/12/08 01:10:30;;;;;;;47.60;24.38;;;5.30;99.90;;;;;;5021758;28;20083;-42
2020/12/08 01:12:56;;;;;;;46.15;24.52;;;5.30;99.90;;;;;;5027283;28;20040;-41
2020/12/08 01:15:21;;;;;;;45.75;25.17;;;5.30;99.90;;;;;;5027307;28;20037;-40
2020/12/08 01:17:46;;;;;;;57.45;26.58;;;5.30;99.90;;;;;;5018938;28;20076;-41
2020/12/08 01:20:12;;;;;;;50.33;22.92;;;5.30;99.90;;;;;;5016845;28;20420;-43
2020/12/08 01:22:37;;;;;;;58.17;28.63;;;5.30;99.90;;;;;;5021763;28;20041;-42
2020/12/08 01:25:03;;;;;;;46.42;24.85;;;5.30;99.90;;;;;;5027703;28;20396;-41
2020/12/08 01:27:33;;;;;;;47.10;24.15;;;5.20;99.90;;;;;;5023677;28;20040;-42
2020/12/08 01:29:58;;;;;;;44.35;22.77;;;5.20;99.90;;;;;;5017175;28;20026;-42
2020/12/08 01:32:24;;;;;;;50.72;26.50;;;5.20;99.90;;;;;;5023928;28;20029;-42
2020/12/08 01:34:49;;;;;;;48.42;23.55;;;5.10;99.90;;;;;;5025999;28;20067;-41
2020/12/08 01:37:15;;;;;;;41.65;21.52;;;5.10;99.90;;;;;;5020943;28;20061;-45
2020/12/08 01:39:40;;;;;;;50.53;22.95;;;5.10;99.90;;;;;;5016738;28;20095;-42
2020/12/08 01:42:06;;;;;;;56.47;26.27;;;5.00;99.90;;;;;;5016718;28;20104;-42
2020/12/08 01:44:32;;;;;;;47.60;24.38;;;5.00;99.90;;;;;;5017206;28;20060;-42
2020/12/08 01:46:57;;;;;;;52.00;25.52;;;5.00;99.90;;;;;;5015574;28;20037;-43
2020/12/08 01:49:23;;;;;;;41.85;22.70;;;5.00;99.90;;;;;;5018287;28;20419;-40
2020/12/08 01:51:49;;;;;;;53.30;28.77;;;5.00;99.90;;;;;;5019588;28;20022;-46
2020/12/08 01:54:17;;;;;;;43.45;23.67;;;5.00;99.90;;;;;;5015088;28;20034;-42
2020/12/08 01:56:42;;;;;;;48.40;25.48;;;5.10;99.90;;;;;;5016180;28;20037;-46
2020/12/08 01:59:08;;;;;;;57.95;29.17;;;5.10;99.90;;;;;;5017632;28;20504;-43
2020/12/08 02:01:33;;;;;;;54.38;26.95;;;5.10;99.90;;;;;;5018326;28;20548;-46
2020/12/08 02:03:59;;;;;;;47.90;26.38;;;5.10;99.90;;;;;;5019115;28;20049;-43
2020/12/08 02:06:25;;;;;;;41.53;22.80;;;5.10;99.90;;;;;;5016436;28;20100;-41
2020/12/08 02:08:51;;;;;;;50.83;24.55;;;5.20;99.90;;;;;;5018527;28;20026;-43
2020/12/08 02:11:17;;;;;;;41.95;22.58;;;5.20;99.90;;;;;;5012820;28;20040;-42
2020/12/08 02:13:42;;;;;;;46.72;24.52;;;5.10;99.90;;;;;;5022603;28;20417;-43
2020/12/08 02:16:08;;;;;;;55.45;27.60;;;5.20;99.90;;;;;;5019215;28;20041;-42
2020/12/08 02:18:33;;;;;;;56.67;27.13;;;5.20;99.90;;;;;;5016829;28;20080;-43
2020/12/08 02:21:01;;;;;;;50.05;26.00;;;5.20;99.90;;;;;;5016795;28;20054;-42
2020/12/08 02:23:27;;;;;;;55.42;25.83;;;5.20;99.90;;;;;;5017260;28;20045;-43
2020/12/08 02:26:02;;;;;;;41.67;23.77;;;5.20;99.90;;;;;;5023246;28;20025;-42
2020/12/08 02:28:29;;;;;;;44.83;24.15;;;5.20;99.90;;;;;;5012785;28;20018;-39
2020/12/08 02:30:55;;;;;;;49.22;26.50;;;5.20;99.90;;;;;;5019684;28;20112;-42
2020/12/08 02:33:23;;;;;;;55.08;27.77;;;5.20;99.90;;;;;;5022948;28;20121;-40
2020/12/08 02:35:48;;;;;;;50.03;25.95;;;5.20;99.90;;;;;;5019136;28;20054;-42
2020/12/08 02:38:14;;;;;;;55.78;27.60;;;5.20;99.90;;;;;;5020177;28;20068;-42
2020/12/08 02:40:39;;;;;;;47.60;25.30;;;5.20;99.90;;;;;;5028140;28;20038;-40
2020/12/08 02:43:05;;;;;;;48.75;25.08;;;5.20;99.90;;;;;;5018021;28;20393;-43
2020/12/08 02:45:30;;;;;;;48.67;24.67;;;5.20;99.90;;;;;;5013599;28;20041;-40
2020/12/08 02:47:56;;;;;;;54.60;28.48;;;5.20;99.90;;;;;;5019788;28;20049;-42
2020/12/08 02:50:21;;;;;;;54.33;29.50;;;5.20;99.90;;;;;;5017428;28;20030;-42
2020/12/08 02:52:47;;;;;;;49.05;25.75;;;5.20;99.90;;;;;;5016037;28;20049;-43
2020/12/08 02:55:12;;;;;;;50.00;26.23;;;5.20;99.90;;;;;;5020687;28;20477;-42
2020/12/08 02:57:38;;;;;;;50.80;27.20;;;5.30;99.90;;;;;;5026028;28;20026;-42
2020/12/08 03:00:04;;;;;;;44.25;24.02;;;5.20;99.90;;;;;;5016444;28;20030;-41
2020/12/08 03:02:30;;;;;;;51.88;24.90;;;5.20;99.90;;;;;;5014246;28;20113;-45
2020/12/08 03:04:55;;;;;;;57.60;29.98;;;5.20;99.90;;;;;;5015863;28;20109;-43
2020/12/08 03:07:21;;;;;;;50.30;26.75;;;5.20;99.90;;;;;;5015654;28;20079;-40
2020/12/08 03:09:46;;;;;;;56.60;27.90;;;5.20;99.90;;;;;;5015561;28;20396;-42
2020/12/08 03:12:12;;;;;;;49.42;26.75;;;5.20;99.90;;;;;;5020077;28;20034;-45
2020/12/08 03:14:37;;;;;;;47.13;26.17;;;5.20;99.90;;;;;;5015844;28;20032;-42
2020/12/08 03:17:06;;;;;;;54.20;29.50;;;5.20;99.90;;;;;;5020093;28;20049;-42
2020/12/08 03:19:31;;;;;;;64.03;29.60;;;5.20;99.90;;;;;;5021929;28;20045;-42
2020/12/08 03:21:57;;;;;;;58.38;29.08;;;5.20;99.90;;;;;;5020033;28;20586;-47
2020/12/08 03:24:23;;;;;;;53.47;28.30;;;5.20;99.90;;;;;;5017928;28;20042;-44
2020/12/08 03:26:48;;;;;;;48.60;24.33;;;5.20;99.90;;;;;;5019797;28;20631;-40
2020/12/08 03:29:14;;;;;;;50.28;24.95;;;5.10;99.90;;;;;;5022743;28;20391;-42
2020/12/08 03:31:40;;;;;;;51.55;26.90;;;5.10;99.90;;;;;;5021123;28;20132;-46
2020/12/08 03:34:06;;;;;;;55.03;28.10;;;5.10;99.90;;;;;;5019061;28;20022;-41
2020/12/08 03:36:32;;;;;;;48.08;24.35;;;5.10;99.90;;;;;;5020501;28;20025;-42
2020/12/08 03:38:58;;;;;;;52.55;27.35;;;5.10;99.90;;;;;;5018529;28;20556;-41
2020/12/08 03:41:24;;;;;;;52.58;27.63;;;5.10;99.90;;;;;;5022384;28;20028;-42
2020/12/08 03:43:53;;;;;;;60.30;29.20;;;5.10;99.90;;;;;;5021465;28;20037;-40
2020/12/08 03:46:24;;;;;;;60.58;31.65;;;5.00;99.90;;;;;;5017648;28;20039;-42
2020/12/08 03:48:50;;;;;;;61.25;29.92;;;5.00;99.90;;;;;;5020521;28;20029;-40
2020/12/08 03:51:17;;;;;;;56.47;27.85;;;5.00;99.90;;;;;;5017310;28;20049;-42
2020/12/08 03:53:43;;;;;;;48.30;24.83;;;5.00;99.90;;;;;;5017032;28;20034;-41
2020/12/08 03:56:14;;;;;;;51.63;27.48;;;5.00;99.90;;;;;;5021778;28;20040;-46
2020/12/08 03:58:40;;;;;;;55.65;26.40;;;4.90;99.90;;;;;;5022679;28;20096;-42
2020/12/08 04:01:06;;;;;;;46.85;24.83;;;5.00;99.90;;;;;;5025801;28;20026;-41
2020/12/08 04:03:32;;;;;;;51.75;26.77;;;5.00;99.90;;;;;;5022213;28;20037;-41
2020/12/08 04:06:04;;;;;;;51.63;25.90;;;5.00;99.90;;;;;;5023772;28;20044;-40
2020/12/08 04:08:30;;;;;;;58.33;28.40;;;4.90;99.90;;;;;;5027043;28;20022;-42
2020/12/08 04:10:56;;;;;;;51.38;26.88;;;4.90;99.90;;;;;;5016303;28;20040;-43
2020/12/08 04:13:22;;;;;;;54.38;26.45;;;4.90;99.90;;;;;;5024147;28;20377;-40
2020/12/08 04:15:48;;;;;;;54.08;28.08;;;4.90;99.90;;;;;;5017502;28;20041;-40
2020/12/08 04:18:14;;;;;;;52.20;26.40;;;4.90;99.90;;;;;;5014681;28;20480;-42
2020/12/08 04:20:41;;;;;;;61.10;30.95;;;4.90;99.90;;;;;;5018203;28;20524;-42
2020/12/08 04:23:09;;;;;;;52.03;28.10;;;4.90;99.90;;;;;;5026854;28;20050;-42
2020/12/08 04:25:35;;;;;;;48.60;25.88;;;4.90;99.90;;;;;;5025337;28;20076;-45
2020/12/08 04:28:00;;;;;;;55.00;27.55;;;4.90;99.90;;;;;;5021679;28;20029;-44
2020/12/08 04:30:26;;;;;;;51.67;27.17;;;4.90;99.90;;;;;;5015734;28;20044;-43
2020/12/08 04:32:51;;;;;;;60.80;31.27;;;4.90;99.90;;;;;;5020763;28;20504;-43
2020/12/08 04:35:17;;;;;;;57.67;28.92;;;4.90;99.90;;;;;;5020498;28;20033;-40
2020/12/08 04:37:42;;;;;;;46.67;23.50;;;4.80;99.90;;;;;;5023379;28;20708;-42
2020/12/08 04:40:08;;;;;;;53.80;23.20;;;4.80;99.90;;;;;;5019058;28;20038;-43
2020/12/08 04:42:42;;;;;;;49.17;23.90;;;4.80;99.90;;;;;;5019709;28;20362;-42
2020/12/08 04:45:07;;;;;;;49.35;25.70;;;4.80;99.90;;;;;;5020747;28;20087;-41
2020/12/08 04:47:37;;;;;;;49.70;25.42;;;4.80;99.90;;;;;;5024607;28;20115;-41
2020/12/08 04:50:02;;;;;;;49.55;24.58;;;4.80;99.90;;;;;;5016436;28;20029;-41
2020/12/08 04:52:28;;;;;;;55.35;26.90;;;4.80;99.90;;;;;;5016166;28;20040;-41
2020/12/08 04:54:53;;;;;;;57.20;28.55;;;4.70;99.90;;;;;;5020398;28;20026;-43
2020/12/08 04:57:19;;;;;;;54.85;27.40;;;4.80;99.90;;;;;;5016063;28;20109;-42
2020/12/08 04:59:44;;;;;;;50.30;25.88;;;4.80;99.90;;;;;;5017022;28;20033;-43
2020/12/08 05:02:10;;;;;;;44.30;23.30;;;4.70;99.90;;;;;;5016804;28;20056;-45
2020/12/08 05:04:35;;;;;;;52.15;26.48;;;4.70;99.90;;;;;;5016490;28;20389;-44
2020/12/08 05:07:08;;;;;;;56.08;26.48;;;4.70;99.90;;;;;;5017582;28;20030;-43
2020/12/08 05:09:44;;;;;;;57.42;28.20;;;4.70;99.90;;;;;;5016894;28;20033;-44
2020/12/08 05:12:10;;;;;;;44.67;24.52;;;4.70;99.90;;;;;;5015130;28;20026;-42
2020/12/08 05:14:42;;;;;;;57.53;30.25;;;4.70;99.90;;;;;;5019005;28;20120;-42
2020/12/08 05:17:08;;;;;;;69.40;32.55;;;4.70;99.90;;;;;;5018139;28;20072;-43
2020/12/08 05:19:33;;;;;;;49.33;24.15;;;4.70;99.90;;;;;;5014848;28;20037;-43
2020/12/08 05:21:59;;;;;;;52.50;26.92;;;4.70;99.90;;;;;;5018584;28;20555;-43
2020/12/08 05:24:32;;;;;;;47.90;23.95;;;4.70;99.90;;;;;;5020530;28;20040;-42
2020/12/08 05:26:59;;;;;;;55.35;28.30;;;4.70;99.90;;;;;;5026700;28;20029;-49
2020/12/08 05:29:26;;;;;;;56.40;29.42;;;4.70;99.90;;;;;;5020293;28;20080;-42
2020/12/08 05:31:52;;;;;;;54.50;28.98;;;4.70;99.90;;;;;;5022201;28;20037;-47
2020/12/08 05:34:19;;;;;;;54.97;25.55;;;4.70;99.90;;;;;;5027436;28;20075;-40
2020/12/08 05:36:51;;;;;;;57.42;29.65;;;4.70;99.90;;;;;;5014506;28;20084;-42
2020/12/08 05:39:19;;;;;;;54.30;28.02;;;4.70;99.90;;;;;;5020752;28;20133;-42
2020/12/08 05:41:45;;;;;;;54.00;27.55;;;4.70;99.90;;;;;;5024888;28;20116;-42
2020/12/08 05:44:23;;;;;;;61.92;31.10;;;4.70;99.90;;;;;;5028497;28;20507;-40
2020/12/08 05:46:53;;;;;;;51.08;27.75;;;4.70;99.90;;;;;;5026345;28;20549;-41
2020/12/08 05:49:20;;;;;;;54.38;26.88;;;4.70;99.90;;;;;;5029116;28;20048;-40
2020/12/08 05:51:49;;;;;;;58.55;28.67;;;4.70;99.90;;;;;;5026705;28;20036;-42
2020/12/08 05:54:21;;;;;;;51.50;26.63;;;4.60;99.90;;;;;;5021845;28;20447;-42
2020/12/08 05:56:50;;;;;;;56.40;29.13;;;4.70;99.90;;;;;;5021705;28;20100;-40
2020/12/08 05:59:29;;;;;;;59.15;28.77;;;4.70;99.90;;;;;;5014063;28;20037;-43
2020/12/08 06:01:55;;;;;;;47.50;23.42;;;4.60;99.90;;;;;;5026299;28;20113;-40
2020/12/08 06:04:21;;;;;;;47.40;25.70;;;4.60;99.90;;;;;;5014924;28;20022;-45
2020/12/08 06:06:48;;;;;;;47.95;27.27;;;4.70;99.90;;;;;;5023762;28;20036;-42
2020/12/08 06:09:30;;;;;;;57.30;29.60;;;4.60;99.90;;;;;;5018710;28;20037;-42
2020/12/08 06:11:56;;;;;;;47.55;25.85;;;4.70;99.90;;;;;;5015557;28;20030;-42
2020/12/08 06:14:36;;;;;;;54.55;29.95;;;4.60;99.90;;;;;;5015809;28;20379;-42
2020/12/08 06:17:03;;;;;;;56.22;29.50;;;4.60;99.90;;;;;;5017683;28;20405;-42
2020/12/08 06:19:32;;;;;;;58.22;29.42;;;4.60;99.90;;;;;;5020525;28;20104;-46
2020/12/08 06:21:58;;;;;;;50.65;27.85;;;4.60;99.90;;;;;;5018527;28;20099;-45
2020/12/08 06:24:24;;;;;;;51.10;27.15;;;4.70;99.90;;;;;;5019331;28;20022;-44
2020/12/08 06:26:49;;;;;;;60.90;31.05;;;4.70;99.90;;;;;;5022559;28;20123;-42
2020/12/08 06:29:15;;;;;;;49.00;28.45;;;4.60;99.90;;;;;;5020554;28;20073;-42
2020/12/08 06:31:45;;;;;;;51.28;26.58;;;4.60;99.90;;;;;;5021367;28;20022;-40
2020/12/08 06:34:31;;;;;;;65.47;31.70;;;4.60;99.90;;;;;;5023662;28;20536;-45
2020/12/08 06:37:09;;;;;;;43.20;25.35;;;4.60;99.90;;;;;;5021196;28;20412;-40
2020/12/08 06:39:36;;;;;;;54.72;26.98;;;4.60;99.90;;;;;;5018037;28;20077;-40
2020/12/08 06:42:14;;;;;;;47.15;23.73;;;4.50;99.90;;;;;;5019502;28;20033;-44
2020/12/08 06:44:39;;;;;;;48.00;26.27;;;4.50;99.90;;;;;;5021099;28;20036;-42
2020/12/08 06:47:05;;;;;;;54.58;28.65;;;4.50;99.90;;;;;;5020406;28;20105;-50
2020/12/08 06:49:38;;;;;;;62.10;30.83;;;4.40;99.90;;;;;;5017263;28;20033;-44
2020/12/08 06:52:08;;;;;;;61.75;29.05;;;4.50;99.90;;;;;;5016887;28;20033;-42
2020/12/08 06:54:33;;;;;;;58.50;29.17;;;4.50;99.90;;;;;;5017322;28;20056;-42
2020/12/08 06:57:00;;;;;;;54.00;28.38;;;4.50;99.90;;;;;;5029886;28;20057;-43
2020/12/08 06:59:26;;;;;;;50.10;26.60;;;4.50;99.90;;;;;;5021489;28;20390;-43
2020/12/08 07:01:53;;;;;;;48.80;25.65;;;4.50;99.90;;;;;;5024235;28;20086;-40
2020/12/08 07:04:19;;;;;;;55.03;26.55;;;4.40;99.90;;;;;;5024642;28;20026;-42
2020/12/08 07:06:46;;;;;;;50.72;28.15;;;4.40;99.90;;;;;;5019688;28;20041;-41
2020/12/08 07:09:12;;;;;;;57.78;30.25;;;4.40;99.90;;;;;;5024412;28;20065;-47
2020/12/08 07:11:37;;;;;;;52.85;27.15;;;4.40;99.90;;;;;;5022327;28;20022;-45
2020/12/08 07:14:06;;;;;;;50.78;28.05;;;4.40;99.90;;;;;;5026697;28;20032;-44
2020/12/08 07:16:34;;;;;;;50.88;26.33;;;4.40;99.90;;;;;;5028890;28;20141;-47
2020/12/08 07:19:04;;;;;;;49.70;26.70;;;4.40;99.90;;;;;;5019226;28;20394;-45
2020/12/08 07:21:29;;;;;;;56.40;27.25;;;4.40;99.90;;;;;;5028181;28;20101;-40
2020/12/08 07:23:56;;;;;;;56.75;29.08;;;4.30;99.90;;;;;;5022689;28;20168;-43
2020/12/08 07:26:26;;;;;;;52.30;27.73;;;4.30;99.90;;;;;;5021337;28;20100;-43
2020/12/08 07:28:53;;;;;;;49.75;25.10;;;4.30;99.90;;;;;;5021600;28;20129;-42
2020/12/08 07:31:24;;;;;;;48.42;26.92;;;4.30;99.90;;;;;;5020378;28;20018;-43
2020/12/08 07:33:51;;;;;;;46.38;24.40;;;4.30;99.90;;;;;;5026360;28;20026;-41
2020/12/08 07:36:22;;;;;;;51.60;26.38;;;4.30;99.90;;;;;;5022877;28;20052;-41
2020/12/08 07:38:50;;;;;;;56.75;29.52;;;4.30;99.90;;;;;;5025775;28;20513;-42
2020/12/08 07:41:24;;;;;;;54.38;26.55;;;4.20;99.90;;;;;;5022624;28;20033;-42
2020/12/08 07:43:50;;;;;;;51.28;27.17;;;4.20;99.90;;;;;;5023932;28;20388;-43
2020/12/08 07:46:23;;;;;;;54.22;28.60;;;4.20;99.90;;;;;;5024676;28;20025;-41
2020/12/08 07:49:07;;;;;;;59.72;29.35;;;4.20;99.90;;;;;;5023966;28;20030;-45
2020/12/08 07:51:34;;;;;;;56.70;27.70;;;4.10;99.90;;;;;;5022970;28;20112;-45
2020/12/08 07:54:01;;;;;;;59.08;27.70;;;4.10;99.90;;;;;;5023053;28;20071;-45
2020/12/08 07:56:31;;;;;;;53.17;27.45;;;4.10;99.90;;;;;;5021270;28;20025;-45
2020/12/08 07:58:58;;;;;;;57.42;31.55;;;4.00;99.90;;;;;;5016961;28;20049;-44
2020/12/08 08:01:24;;;;;;;55.67;29.95;;;4.00;99.90;;;;;;5022436;28;20045;-45
2020/12/08 08:03:50;;;;;;;58.70;26.55;;;3.90;99.90;;;;;;5022970;28;20044;-40
2020/12/08 08:06:17;;;;;;;63.88;32.20;;;3.90;99.90;;;;;;5018152;28;20030;-42
2020/12/08 08:08:44;;;;;;;50.70;26.48;;;3.90;99.90;;;;;;5018448;28;20113;-40
2020/12/08 08:11:10;;;;;;;49.35;24.90;;;3.90;99.90;;;;;;5015349;28;20109;-45
2020/12/08 08:13:36;;;;;;;53.65;27.98;;;3.80;99.90;;;;;;5015766;28;20463;-45
2020/12/08 08:16:01;;;;;;;55.85;31.23;;;3.80;99.90;;;;;;5020080;28;20028;-45
2020/12/08 08:18:27;;;;;;;58.35;30.75;;;3.80;99.90;;;;;;5015834;28;20068;-43
2020/12/08 08:20:53;;;;;;;57.88;29.27;;;3.70;99.90;;;;;;5017657;28;20318;-42
2020/12/08 08:23:18;;;;;;;48.22;26.13;;;3.70;99.90;;;;;;5019044;28;20442;-41
2020/12/08 08:25:44;;;;;;;56.40;30.50;;;3.60;99.90;;;;;;5021144;28;20026;-45
2020/12/08 08:28:09;;;;;;;57.88;30.17;;;3.60;99.90;;;;;;5025698;28;20056;-42
2020/12/08 08:30:35;;;;;;;65.50;33.40;;;3.50;99.90;;;;;;5016424;28;20117;-42
2020/12/08 08:33:00;;;;;;;61.97;32.45;;;3.50;99.90;;;;;;5022889;28;20112;-44
2020/12/08 08:35:27;;;;;;;57.58;30.45;;;3.50;99.90;;;;;;5016309;28;20017;-44
2020/12/08 08:37:53;;;;;;;61.35;31.52;;;3.60;99.90;;;;;;5022605;28;20025;-42
2020/12/08 08:40:19;;;;;;;64.18;33.25;;;3.60;99.90;;;;;;5027049;28;20493;-43
2020/12/08 08:42:44;;;;;;;57.25;31.35;;;3.60;99.90;;;;;;5029970;28;20040;-40
2020/12/08 08:45:10;;;;;;;52.30;28.65;;;3.60;99.90;;;;;;5019633;28;20069;-42
2020/12/08 08:47:35;;;;;;;53.10;25.30;;;3.70;99.90;;;;;;5016087;28;20394;-43
2020/12/08 08:50:01;;;;;;;54.65;29.83;;;3.70;99.90;;;;;;5023811;28;20040;-44
2020/12/08 08:52:26;;;;;;;62.67;29.73;;;3.80;99.90;;;;;;5025760;28;20064;-42
2020/12/08 08:54:52;;;;;;;60.40;31.83;;;3.90;99.90;;;;;;5028139;28;20031;-42
2020/12/08 08:57:17;;;;;;;62.03;29.98;;;4.00;99.90;;;;;;5026369;28;20063;-41
2020/12/08 08:59:43;;;;;;;50.58;26.30;;;4.00;99.90;;;;;;5017250;28;20083;-45
2020/12/08 09:02:09;;;;;;;52.60;29.33;;;4.20;99.90;;;;;;5021889;28;20033;-44
2020/12/08 09:04:34;;;;;;;67.82;32.47;;;4.20;99.90;;;;;;5024932;28;20029;-43
2020/12/08 09:07:00;;;;;;;49.28;25.50;;;4.40;99.90;;;;;;5017816;28;20038;-50
2020/12/08 09:09:25;;;;;;;57.60;29.92;;;4.50;99.90;;;;;;5020193;28;20037;-47
2020/12/08 09:11:51;;;;;;;56.15;27.95;;;4.60;99.90;;;;;;5018806;28;20208;-42
2020/12/08 09:14:16;;;;;;;58.83;30.45;;;4.80;99.90;;;;;;5019897;28;20481;-45
2020/12/08 09:16:44;;;;;;;56.55;31.33;;;5.00;99.90;;;;;;5018481;28;20236;-45
2020/12/08 09:19:09;;;;;;;52.03;29.02;;;5.00;99.90;;;;;;5018254;28;20044;-45
2020/12/08 09:21:35;;;;;;;65.55;32.35;;;5.10;99.90;;;;;;5018042;28;20026;-43
2020/12/08 09:24:00;;;;;;;51.53;29.75;;;5.30;99.90;;;;;;5020921;28;20095;-45
2020/12/08 09:26:26;;;;;;;59.63;30.98;;;5.40;99.90;;;;;;5016975;28;20033;-45
2020/12/08 09:28:51;;;;;;;50.97;28.92;;;5.40;99.90;;;;;;5017555;28;20041;-47
2020/12/08 09:31:17;;;;;;;57.28;29.40;;;5.50;99.90;;;;;;5015989;28;20049;-41
2020/12/08 09:33:43;;;;;;;46.28;27.33;;;5.60;99.90;;;;;;5022921;28;20104;-42
2020/12/08 09:36:09;;;;;;;59.63;32.13;;;5.60;99.90;;;;;;5014410;28;20480;-42
2020/12/08 09:38:34;;;;;;;58.75;32.00;;;5.60;99.90;;;;;;5017614;28;20025;-44
2020/12/08 09:41:00;;;;;;;55.40;30.67;;;5.60;99.90;;;;;;5017708;28;20030;-42
2020/12/08 09:43:25;;;;;;;50.45;27.30;;;5.50;99.90;;;;;;5014316;28;20078;-44
2020/12/08 09:45:51;;;;;;;47.22;25.85;;;5.60;99.90;;;;;;5017643;28;20113;-45
2020/12/08 09:48:16;;;;;;;52.00;27.88;;;5.70;99.90;;;;;;5014914;28;20060;-44
2020/12/08 09:50:42;;;;;;;55.40;30.15;;;5.70;99.90;;;;;;5013542;28;20490;-44
2020/12/08 09:53:07;;;;;;;62.97;34.95;;;5.70;99.90;;;;;;5022144;28;20033;-43
2020/12/08 09:55:33;;;;;;;51.92;31.02;;;5.60;99.90;;;;;;5023863;28;20080;-44
2020/12/08 09:57:58;;;;;;;64.18;36.47;;;5.60;99.90;;;;;;5018070;28;20032;-46
2020/12/08 10:00:24;;;;;;;57.85;32.30;;;5.70;99.90;;;;;;5026598;28;20116;-42
2020/12/08 10:02:49;;;;;;;50.47;29.10;;;5.80;99.90;;;;;;5021371;28;20045;-42
2020/12/08 10:05:15;;;;;;;67.75;35.83;;;5.80;99.90;;;;;;5028406;28;20033;-42
2020/12/08 10:07:42;;;;;;;51.58;28.48;;;5.80;99.90;;;;;;5025714;28;20401;-42
2020/12/08 10:10:08;;;;;;;64.68;35.13;;;5.70;99.90;;;;;;5024130;28;20412;-42
2020/12/08 10:12:34;;;;;;;54.00;31.17;;;5.70;99.90;;;;;;5021470;28;20452;-42
2020/12/08 10:14:59;;;;;;;64.03;35.80;;;5.70;99.90;;;;;;5025046;28;20058;-42
2020/12/08 10:17:25;;;;;;;59.90;32.45;;;5.60;99.90;;;;;;5022478;28;20056;-41
2020/12/08 10:19:50;;;;;;;51.85;28.13;;;5.50;99.90;;;;;;5023806;28;20109;-42
2020/12/08 10:22:16;;;;;;;49.20;28.52;;;5.60;99.90;;;;;;5020243;28;20499;-42
2020/12/08 10:24:43;;;;;;;54.45;30.27;;;5.60;99.90;;;;;;5022150;28;20099;-45
2020/12/08 10:27:09;;;;;;;52.10;27.13;;;5.50;99.90;;;;;;5027463;28;20026;-42
2020/12/08 10:29:35;;;;;;;53.95;29.92;;;5.50;99.90;;;;;;5021339;28;20037;-41
2020/12/08 10:32:00;;;;;;;62.17;33.00;;;5.60;99.90;;;;;;5028308;28;20048;-43
2020/12/08 10:34:26;;;;;;;58.53;30.83;;;5.50;99.90;;;;;;5019332;28;20075;-46
2020/12/08 10:36:52;;;;;;;55.60;32.08;;;5.50;99.90;;;;;;5020970;28;20041;-46
2020/12/08 10:39:17;;;;;;;57.13;31.85;;;5.50;99.90;;;;;;5022229;28;20017;-44
2020/12/08 10:41:43;;;;;;;73.70;39.38;;;5.50;99.90;;;;;;5028619;28;20030;-48
2020/12/08 10:44:08;;;;;;;65.60;36.80;;;5.50;99.90;;;;;;5023489;28;20036;-47
2020/12/08 10:46:35;;;;;;;62.72;35.15;;;5.50;99.90;;;;;;5025013;28;20034;-50
2020/12/08 10:49:00;;;;;;;63.88;35.13;;;5.50;99.90;;;;;;5021393;28;20095;-45
2020/12/08 10:51:26;;;;;;;64.15;33.25;;;5.40;99.90;;;;;;5017457;28;20053;-47
2020/12/08 10:53:52;;;;;;;64.10;33.53;;;5.40;99.90;;;;;;5019904;28;20045;-44
2020/12/08 10:56:18;;;;;;;67.45;37.30;;;5.40;99.90;;;;;;5024396;28;20130;-50
2020/12/08 10:58:45;;;;;;;62.33;32.45;;;5.40;99.90;;;;;;5020444;28;20184;-45
2020/12/08 11:01:16;;;;;;;63.55;35.72;;;5.30;99.90;;;;;;5022743;28;20057;-43
2020/12/08 11:03:41;;;;;;;66.38;35.28;;;5.30;99.90;;;;;;5023455;28;20021;-46
2020/12/08 11:06:07;;;;;;;64.13;36.00;;;5.30;99.90;;;;;;5021076;28;20052;-46
2020/12/08 11:08:32;;;;;;;72.07;38.80;;;5.30;99.90;;;;;;5016125;28;20087;-42
2020/12/08 11:10:57;;;;;;;69.10;38.25;;;5.30;99.90;;;;;;5019133;28;20039;-42
2020/12/08 11:13:23;;;;;;;67.88;34.88;;;5.30;99.90;;;;;;5021164;28;20033;-42
2020/12/08 11:15:48;;;;;;;69.68;35.95;;;5.40;99.90;;;;;;5021530;28;20048;-45
2020/12/08 11:18:14;;;;;;;69.45;37.65;;;5.40;99.90;;;;;;5019520;28;20528;-43
2020/12/08 11:20:39;;;;;;;64.05;34.50;;;5.30;99.90;;;;;;5017985;28;20026;-43
2020/12/08 11:23:05;;;;;;;62.65;34.33;;;5.30;99.90;;;;;;5020840;28;20046;-44
2020/12/08 11:25:30;;;;;;;68.07;39.28;;;5.30;99.90;;;;;;5028175;28;20037;-50
2020/12/08 11:27:56;;;;;;;69.28;38.33;;;5.30;99.90;;;;;;5027348;28;20195;-43
2020/12/08 11:30:21;;;;;;;67.93;36.60;;;5.30;99.90;;;;;;5021051;28;20425;-40
2020/12/08 11:32:48;;;;;;;69.90;37.78;;;5.30;99.90;;;;;;5029168;28;20069;-40
2020/12/08 11:35:15;;;;;;;74.60;43.75;;;5.20;99.90;;;;;;5021692;28;20049;-41
2020/12/08 11:37:41;;;;;;;69.18;36.58;;;5.30;99.90;;;;;;5020371;28;20049;-44
2020/12/08 11:40:06;;;;;;;75.32;39.75;;;5.30;99.90;;;;;;5022881;28;20465;-44
2020/12/08 11:42:32;;;;;;;66.97;38.38;;;5.20;99.90;;;;;;5027474;28;20384;-42
2020/12/08 11:44:57;;;;;;;71.57;38.30;;;5.30;99.90;;;;;;5021225;28;20484;-40
2020/12/08 11:47:23;;;;;;;67.13;36.75;;;5.30;99.90;;;;;;5029042;28;20042;-41
2020/12/08 11:49:49;;;;;;;66.53;36.47;;;5.30;99.90;;;;;;5024748;28;20030;-42
2020/12/08 11:52:14;;;;;;;61.05;34.72;;;5.30;99.90;;;;;;5022216;28;20439;-41
2020/12/08 11:54:40;;;;;;;72.00;40.45;;;5.30;99.90;;;;;;5022339;28;20517;-41
2020/12/08 11:57:07;;;;;;;71.82;38.63;;;5.30;99.90;;;;;;5023584;28;20049;-49
2020/12/08 11:59:32;;;;;;;62.20;33.75;;;5.30;99.90;;;;;;5023382;28;20060;-43
2020/12/08 12:01:58;;;;;;;70.40;36.53;;;5.30;99.90;;;;;;5024288;28;20033;-41
2020/12/08 12:04:24;;;;;;;65.85;34.53;;;5.30;99.90;;;;;;5017163;28;20434;-43
2020/12/08 12:06:49;;;;;;;69.20;39.25;;;5.20;99.90;;;;;;5023397;28;20029;-43
2020/12/08 12:09:15;;;;;;;70.20;37.17;;;5.20;99.90;;;;;;5025610;28;20033;-42
2020/12/08 12:11:40;;;;;;;66.97;34.95;;;5.20;99.90;;;;;;5021218;28;20054;-48
2020/12/08 12:14:06;;;;;;;71.70;39.33;;;5.20;99.90;;;;;;5020161;28;20104;-44
2020/12/08 12:16:31;;;;;;;73.55;40.67;;;5.10;99.90;;;;;;5021160;28;20469;-47
2020/12/08 12:18:57;;;;;;;74.22;39.42;;;5.10;99.90;;;;;;5020213;28;20025;-43
2020/12/08 12:21:23;;;;;;;61.22;34.75;;;5.10;99.90;;;;;;5020068;28;20036;-44
2020/12/08 12:23:48;;;;;;;78.90;42.15;;;5.10;99.90;;;;;;5022535;28;20509;-41
2020/12/08 12:26:14;;;;;;;69.68;37.92;;;5.00;99.90;;;;;;5017478;28;20386;-44
2020/12/08 12:28:40;;;;;;;83.35;43.08;;;5.00;99.90;;;;;;5016118;28;20073;-42
2020/12/08 12:31:07;;;;;;;71.35;38.25;;;5.00;99.90;;;;;;5020555;28;20054;-46
2020/12/08 12:33:34;;;;;;;76.35;38.97;;;5.00;99.90;;;;;;5017103;28;20673;-43